Time;durP1;ratioP1;P1;durP2;ratioP2;P2;SDS_P1;SDS_P2;PMS_P1;PMS_P2;Temp;Humidity;BMP_temperature;BMP_pressure;BME280_temperature;BME280_humidity;BME280_pressure;Samples;Min_cycle;Max_cycle;Signal;HPM_P1;HPM_P2
2021/12/29 00:00:49;;;;;;;4.47;0.93;;;22.00;60.60;;;;;;4109564;28;20057;-53
2021/12/29 00:02:52;;;;;;;3.92;1.20;;;22.00;60.60;;;;;;4152313;28;20053;-56
2021/12/29 00:04:55;;;;;;;4.75;1.00;;;22.00;60.40;;;;;;4129621;28;20091;-53
2021/12/29 00:06:57;;;;;;;2.25;1.00;;;22.10;60.50;;;;;;4126034;28;20160;-57
2021/12/29 00:08:59;;;;;;;3.67;0.90;;;22.10;60.40;;;;;;4112687;28;20140;-54
2021/12/29 00:11:01;;;;;;;1.20;0.80;;;22.10;60.30;;;;;;4154225;28;21039;-54
2021/12/29 00:13:04;;;;;;;3.05;1.10;;;22.10;60.90;;;;;;4144974;28;20052;-56
2021/12/29 00:15:08;;;;;;;1.23;0.70;;;22.10;60.50;;;;;;4128242;28;20520;-59
2021/12/29 00:17:10;;;;;;;2.17;0.98;;;22.10;60.60;;;;;;4136774;28;20057;-56
2021/12/29 00:19:12;;;;;;;2.58;0.98;;;22.10;60.60;;;;;;4126921;28;20061;-51
2021/12/29 00:21:14;;;;;;;2.80;1.02;;;22.20;60.70;;;;;;4128124;28;20045;-56
2021/12/29 00:23:16;;;;;;;1.88;0.85;;;22.20;61.00;;;;;;4154785;28;20036;-53
2021/12/29 00:25:18;;;;;;;2.25;0.80;;;22.20;60.90;;;;;;4147831;28;20414;-52
2021/12/29 00:27:20;;;;;;;1.90;0.82;;;22.20;60.80;;;;;;4126667;28;20742;-56
2021/12/29 00:29:22;;;;;;;1.38;0.88;;;22.20;60.90;;;;;;4117446;28;20060;-58
2021/12/29 00:31:28;;;;;;;1.30;0.80;;;22.20;61.10;;;;;;4134378;28;20048;-53
2021/12/29 00:33:30;;;;;;;2.55;0.93;;;22.20;61.20;;;;;;4112518;28;20042;-56
2021/12/29 00:35:34;;;;;;;2.33;1.10;;;22.20;61.30;;;;;;4148796;28;20416;-55
2021/12/29 00:37:36;;;;;;;1.80;1.00;;;22.30;61.50;;;;;;4149112;28;20060;-56
2021/12/29 00:39:38;;;;;;;2.55;0.70;;;22.30;61.60;;;;;;4147290;28;20179;-52
2021/12/29 00:41:40;;;;;;;3.70;0.80;;;22.30;61.70;;;;;;4126596;28;20103;-56
2021/12/29 00:43:44;;;;;;;1.48;0.82;;;22.30;61.70;;;;;;4152031;28;20041;-55
2021/12/29 00:45:47;;;;;;;1.17;0.70;;;22.30;61.50;;;;;;4129323;28;21014;-52
2021/12/29 00:47:50;;;;;;;3.20;1.10;;;22.30;61.50;;;;;;4144488;28;20061;-54
2021/12/29 00:49:53;;;;;;;1.83;0.70;;;22.30;61.60;;;;;;4150579;28;20052;-54
2021/12/29 00:51:55;;;;;;;1.80;0.80;;;22.30;61.60;;;;;;4159110;28;20082;-50
2021/12/29 00:53:58;;;;;;;3.03;1.20;;;22.30;61.30;;;;;;4125972;28;21364;-51
2021/12/29 00:56:00;;;;;;;3.80;1.17;;;22.30;61.50;;;;;;4145816;28;20552;-50
2021/12/29 00:58:03;;;;;;;1.87;0.70;;;22.30;61.50;;;;;;4154470;28;20045;-55
2021/12/29 01:02:11;;;;;;;1.90;0.90;;;22.40;61.10;;;;;;4100569;28;20465;-57
2021/12/29 01:04:14;;;;;;;1.52;0.90;;;22.40;61.50;;;;;;4111489;28;20058;-57
2021/12/29 01:06:16;;;;;;;9.10;1.13;;;22.40;62.20;;;;;;4104421;28;20058;-56
2021/12/29 01:08:18;;;;;;;4.93;0.93;;;22.40;61.60;;;;;;4094312;28;20218;-55
2021/12/29 01:10:20;;;;;;;2.33;0.85;;;22.50;61.60;;;;;;4092024;28;20080;-54
2021/12/29 01:12:23;;;;;;;3.00;0.90;;;22.50;61.60;;;;;;4075986;28;20106;-59
2021/12/29 01:14:30;;;;;;;1.52;0.90;;;22.50;61.60;;;;;;4095592;28;20061;-57
2021/12/29 01:18:39;;;;;;;1.65;1.05;;;22.50;61.60;;;;;;4092559;28;20057;-55
2021/12/29 01:20:41;;;;;;;3.03;1.10;;;22.50;61.70;;;;;;4088755;28;20062;-56
2021/12/29 01:22:43;;;;;;;1.67;1.00;;;22.50;61.70;;;;;;4069987;28;20874;-50
2021/12/29 01:24:46;;;;;;;1.70;0.70;;;22.50;61.70;;;;;;4080377;28;20215;-53
2021/12/29 01:26:49;;;;;;;1.23;0.70;;;22.50;61.70;;;;;;4090391;28;20054;-55
2021/12/29 01:28:51;;;;;;;4.43;1.17;;;22.50;61.70;;;;;;4101088;28;20042;-57
2021/12/29 01:30:53;;;;;;;1.65;1.02;;;22.50;61.70;;;;;;4092110;28;20042;-56
2021/12/29 01:32:56;;;;;;;1.88;0.73;;;22.50;61.80;;;;;;4090503;28;20100;-54
2021/12/29 01:34:58;;;;;;;1.50;0.98;;;22.50;61.70;;;;;;4103170;28;20136;-49
2021/12/29 01:37:00;;;;;;;2.25;0.93;;;22.50;61.90;;;;;;4094235;28;20184;-55
2021/12/29 01:39:05;;;;;;;1.37;0.93;;;22.50;62.20;;;;;;4093662;28;20084;-53
2021/12/29 01:41:08;;;;;;;8.02;1.33;;;22.50;63.00;;;;;;4096979;28;20057;-56
2021/12/29 01:43:10;;;;;;;1.42;0.70;;;22.50;62.50;;;;;;4103434;28;20950;-53
2021/12/29 01:45:13;;;;;;;1.65;1.10;;;22.50;62.40;;;;;;4092354;28;20054;-57
2021/12/29 01:47:29;;;;;;;1.83;1.00;;;22.60;62.50;;;;;;4092643;28;20046;-59
2021/12/29 01:49:31;;;;;;;2.67;1.00;;;22.60;62.40;;;;;;4090951;28;20062;-56
2021/12/29 01:51:34;;;;;;;2.17;0.70;;;22.60;62.40;;;;;;4101211;28;20085;-57
2021/12/29 01:53:45;;;;;;;;;;;22.60;62.30;;;;;;4096887;28;21287;-57
2021/12/29 01:55:47;;;;;;;4.53;1.10;;;22.70;62.30;;;;;;4099219;28;20394;-53
2021/12/29 01:57:50;;;;;;;2.97;1.05;;;22.70;62.30;;;;;;4092288;28;20049;-56
2021/12/29 01:59:52;;;;;;;2.78;1.10;;;22.70;62.20;;;;;;4079416;28;20530;-51
2021/12/29 02:01:55;;;;;;;2.75;1.00;;;22.70;62.10;;;;;;4101116;28;20826;-52
2021/12/29 02:03:58;;;;;;;2.97;0.95;;;22.70;62.10;;;;;;4089263;28;20105;-51
2021/12/29 02:06:01;;;;;;;2.83;1.05;;;22.80;62.40;;;;;;4086176;28;20528;-56
2021/12/29 02:08:05;;;;;;;3.92;1.02;;;22.80;62.30;;;;;;4097756;28;20631;-50
2021/12/29 02:10:08;;;;;;;5.47;1.20;;;22.80;63.30;;;;;;4091005;28;20057;-55
2021/12/29 02:12:10;;;;;;;4.18;1.20;;;22.80;62.70;;;;;;4085507;28;20379;-56
2021/12/29 02:14:14;;;;;;;2.47;1.08;;;22.80;62.70;;;;;;4080684;28;20538;-57
2021/12/29 02:16:16;;;;;;;5.65;1.10;;;22.90;62.70;;;;;;4087686;28;20054;-53
2021/12/29 02:18:20;;;;;;;3.33;1.40;;;22.90;62.80;;;;;;4081449;28;20108;-53
2021/12/29 02:20:22;;;;;;;3.25;1.20;;;22.90;62.70;;;;;;4077884;28;20055;-50
2021/12/29 02:22:40;;;;;;;3.03;1.10;;;22.90;62.60;;;;;;4088828;28;20121;-53
2021/12/29 02:24:44;;;;;;;1.88;0.77;;;23.00;62.60;;;;;;4080020;28;20038;-52
2021/12/29 02:26:47;;;;;;;1.65;1.10;;;23.00;62.60;;;;;;4091384;28;20136;-49
2021/12/29 02:28:49;;;;;;;4.07;1.35;;;23.00;62.50;;;;;;4077312;28;21778;-52
2021/12/29 02:30:52;;;;;;;2.67;1.25;;;23.00;62.30;;;;;;4079086;28;20153;-56
2021/12/29 02:32:57;;;;;;;4.68;1.45;;;23.00;62.20;;;;;;4086795;28;20051;-56
2021/12/29 02:35:00;;;;;;;3.08;1.10;;;23.10;62.60;;;;;;4070014;28;20062;-53
2021/12/29 02:37:03;;;;;;;4.95;1.35;;;23.10;62.50;;;;;;4077612;28;20046;-55
2021/12/29 02:39:06;;;;;;;2.70;1.00;;;23.10;62.50;;;;;;4082398;28;20482;-54
2021/12/29 02:41:08;;;;;;;1.92;0.88;;;23.20;63.10;;;;;;4088074;28;20114;-49
2021/12/29 02:43:15;;;;;;;3.60;1.15;;;23.20;62.40;;;;;;4080809;28;20054;-57
2021/12/29 02:45:21;;;;;;;2.03;1.02;;;23.30;62.40;;;;;;4077680;28;20046;-56
2021/12/29 02:47:24;;;;;;;2.45;1.25;;;23.30;62.30;;;;;;4082186;28;20155;-55
2021/12/29 02:49:27;;;;;;;3.28;1.02;;;23.30;62.20;;;;;;4089376;28;20054;-56
2021/12/29 02:51:30;;;;;;;;;;;23.30;62.10;;;;;;4086106;28;20169;-56
2021/12/29 02:53:32;;;;;;;4.30;1.33;;;23.30;62.10;;;;;;4078169;28;20384;-55
2021/12/29 02:55:34;;;;;;;5.10;1.00;;;23.40;62.20;;;;;;4085703;28;20180;-53
2021/12/29 02:57:37;;;;;;;3.40;1.27;;;23.40;61.80;;;;;;4089468;28;20050;-50
2021/12/29 02:59:39;;;;;;;1.77;1.00;;;23.50;61.80;;;;;;4079746;28;20107;-52
2021/12/29 03:01:41;;;;;;;1.80;1.10;;;23.40;61.80;;;;;;4077285;28;20060;-52
2021/12/29 03:03:43;;;;;;;4.65;0.98;;;23.50;61.80;;;;;;4089698;28;20110;-55
2021/12/29 03:05:46;;;;;;;2.83;0.90;;;23.50;61.80;;;;;;4081720;28;20085;-53
2021/12/29 03:07:48;;;;;;;4.13;1.08;;;23.50;62.40;;;;;;4079601;28;20050;-51
2021/12/29 03:09:51;;;;;;;3.15;0.98;;;23.50;61.60;;;;;;4075020;28;20054;-55
2021/12/29 03:11:53;;;;;;;3.60;1.55;;;23.60;61.70;;;;;;4087413;28;20899;-51
2021/12/29 03:13:55;;;;;;;1.57;0.90;;;23.60;61.80;;;;;;4080385;28;20337;-50
2021/12/29 03:15:58;;;;;;;2.42;1.10;;;23.60;61.70;;;;;;4079569;28;20046;-52
2021/12/29 03:18:00;;;;;;;2.47;1.13;;;23.60;61.70;;;;;;4077261;28;20101;-52
2021/12/29 03:20:03;;;;;;;2.30;0.93;;;23.60;61.60;;;;;;4073856;28;20402;-53
2021/12/29 03:22:05;;;;;;;2.90;1.33;;;23.70;61.70;;;;;;4087193;28;20062;-51
2021/12/29 03:24:08;;;;;;;1.65;0.88;;;23.70;61.70;;;;;;4077898;28;20152;-53
2021/12/29 03:26:10;;;;;;;5.18;1.30;;;23.70;61.60;;;;;;4076992;28;21094;-48
2021/12/29 03:28:13;;;;;;;4.85;1.00;;;23.80;61.50;;;;;;4087107;28;20141;-54
2021/12/29 03:30:15;;;;;;;4.68;1.17;;;23.80;61.50;;;;;;4086993;28;20825;-50
2021/12/29 03:32:34;;;;;;;4.67;1.17;;;23.80;61.50;;;;;;4082961;28;20054;-53
2021/12/29 03:34:36;;;;;;;4.70;1.42;;;23.80;61.50;;;;;;4087402;28;20323;-54
2021/12/29 03:36:39;;;;;;;3.05;1.27;;;23.80;61.50;;;;;;4083733;28;20043;-52
2021/12/29 03:38:42;;;;;;;1.95;0.90;;;23.80;61.30;;;;;;4082005;28;20442;-51
2021/12/29 03:40:43;;;;;;;;;;;23.90;61.30;;;;;;4083710;28;20050;-54
2021/12/29 03:42:46;;;;;;;2.85;1.00;;;23.90;61.20;;;;;;4088151;28;19993;-55
2021/12/29 03:44:48;;;;;;;5.78;1.33;;;23.90;61.20;;;;;;4078638;28;20601;-53
2021/12/29 03:46:50;;;;;;;3.28;1.33;;;23.90;61.20;;;;;;4066030;28;20917;-52
2021/12/29 03:48:52;;;;;;;4.57;1.42;;;24.00;61.20;;;;;;4086301;28;20557;-56
2021/12/29 03:50:56;;;;;;;2.47;1.33;;;24.00;61.70;;;;;;4087650;28;20062;-53
2021/12/29 03:52:58;;;;;;;3.30;1.05;;;24.00;61.10;;;;;;4080490;28;20319;-48
2021/12/29 03:55:01;;;;;;;1.60;0.90;;;24.00;61.10;;;;;;4081168;28;20081;-53
2021/12/29 03:57:03;;;;;;;2.28;0.80;;;24.00;61.20;;;;;;4081526;28;20070;-56
2021/12/29 03:59:05;;;;;;;4.85;1.48;;;24.00;61.20;;;;;;4088373;28;20525;-55
2021/12/29 04:01:10;;;;;;;1.55;0.80;;;24.00;61.20;;;;;;4080047;28;20058;-54
2021/12/29 04:03:13;;;;;;;2.65;1.00;;;24.00;61.20;;;;;;4081601;28;20084;-54
2021/12/29 04:05:18;;;;;;;4.38;1.15;;;24.00;61.20;;;;;;4081388;28;20129;-51
2021/12/29 04:07:20;;;;;;;2.08;0.90;;;24.00;61.20;;;;;;4086813;28;20058;-56
2021/12/29 04:09:23;;;;;;;2.78;1.10;;;24.00;61.20;;;;;;4090498;28;20118;-57
2021/12/29 04:11:25;;;;;;;1.80;0.77;;;24.00;61.10;;;;;;4081696;28;20101;-57
2021/12/29 04:13:27;;;;;;;2.97;0.93;;;24.00;61.10;;;;;;4079906;28;20042;-58
2021/12/29 04:15:30;;;;;;;2.83;1.08;;;24.10;61.10;;;;;;4086529;28;20046;-58
2021/12/29 04:17:39;;;;;;;3.03;1.17;;;24.10;61.10;;;;;;4088045;28;20049;-57
2021/12/29 04:20:54;;;;;;;2.85;0.98;;;24.10;61.10;;;;;;4087054;28;20058;-55
2021/12/29 04:22:03;;;;;;;1.17;0.70;;;24.10;61.00;;;;;;4081905;28;20415;-55
2021/12/29 04:24:09;;;;;;;4.10;0.90;;;24.10;61.00;;;;;;4092175;28;20522;-49
2021/12/29 04:26:11;;;;;;;3.17;0.93;;;24.20;61.60;;;;;;4083942;28;21703;-51
2021/12/29 04:28:16;;;;;;;3.08;0.80;;;24.10;61.00;;;;;;4079720;28;21289;-48
2021/12/29 04:30:18;;;;;;;1.83;0.95;;;24.10;61.10;;;;;;4079797;28;20061;-55
2021/12/29 04:32:21;;;;;;;3.38;0.70;;;24.20;61.10;;;;;;4085353;28;20076;-50
2021/12/29 04:34:23;;;;;;;1.45;1.00;;;24.20;61.10;;;;;;4086530;28;20597;-48
2021/12/29 04:36:25;;;;;;;4.43;1.10;;;24.20;61.20;;;;;;4078735;28;20058;-54
2021/12/29 04:38:28;;;;;;;1.35;0.75;;;24.20;61.40;;;;;;4082504;28;20061;-52
2021/12/29 04:40:30;;;;;;;2.15;0.90;;;24.20;61.30;;;;;;4083052;28;20488;-55
2021/12/29 04:42:32;;;;;;;2.35;0.70;;;24.20;61.30;;;;;;4088729;28;20062;-54
2021/12/29 04:44:34;;;;;;;2.30;1.08;;;24.20;61.30;;;;;;4082198;28;20070;-51
2021/12/29 04:46:39;;;;;;;3.47;1.00;;;24.20;61.10;;;;;;4080707;28;20050;-53
2021/12/29 04:48:47;;;;;;;3.30;1.20;;;24.20;61.10;;;;;;4066391;28;20079;-57
2021/12/29 04:50:52;;;;;;;3.22;1.10;;;24.30;60.70;;;;;;4085014;28;20042;-55
2021/12/29 04:52:59;;;;;;;3.33;0.95;;;24.30;61.20;;;;;;4075333;28;20075;-55
2021/12/29 04:55:01;;;;;;;5.60;0.93;;;24.40;61.30;;;;;;4090517;28;20077;-57
2021/12/29 04:57:03;;;;;;;2.50;0.50;;;24.40;61.30;;;;;;4085741;28;20645;-50
2021/12/29 04:59:06;;;;;;;3.35;0.98;;;24.40;61.20;;;;;;4082609;28;20098;-54
2021/12/29 05:01:09;;;;;;;6.90;1.10;;;24.50;61.30;;;;;;4085657;28;20077;-54
2021/12/29 05:03:11;;;;;;;2.55;0.77;;;24.50;61.20;;;;;;4077505;28;20074;-49
2021/12/29 05:09:54;;;;;;;2.55;0.63;;;24.60;61.00;;;;;;4081362;28;20081;-52
2021/12/29 05:11:58;;;;;;;1.60;0.80;;;24.70;61.00;;;;;;4089746;28;20058;-53
2021/12/29 05:14:01;;;;;;;1.38;0.65;;;24.70;61.00;;;;;;4090529;28;20065;-59
2021/12/29 05:16:04;;;;;;;2.28;0.70;;;24.70;60.90;;;;;;4081897;28;20139;-56
2021/12/29 05:18:06;;;;;;;2.63;1.20;;;24.80;61.00;;;;;;4080180;28;20039;-50
2021/12/29 05:20:09;;;;;;;2.15;0.80;;;24.80;60.90;;;;;;4087764;28;20129;-54
2021/12/29 05:22:11;;;;;;;4.57;0.82;;;24.80;61.10;;;;;;4088209;28;20485;-47
2021/12/29 05:24:13;;;;;;;1.95;0.60;;;24.80;60.90;;;;;;4080818;28;21164;-51
2021/12/29 05:26:15;;;;;;;2.67;1.05;;;24.80;60.80;;;;;;4079256;28;20051;-55
2021/12/29 05:28:19;;;;;;;4.07;1.00;;;24.80;61.10;;;;;;4085934;28;20103;-53
2021/12/29 05:30:21;;;;;;;4.57;1.10;;;24.80;61.00;;;;;;4089405;28;20050;-53
2021/12/29 05:32:23;;;;;;;2.28;0.80;;;24.90;61.00;;;;;;4081655;28;20999;-52
2021/12/29 05:34:25;;;;;;;3.08;1.00;;;24.90;60.90;;;;;;4065455;28;20058;-57
2021/12/29 05:36:27;;;;;;;2.90;0.85;;;24.90;61.10;;;;;;4085720;28;20058;-57
2021/12/29 05:38:30;;;;;;;6.57;1.03;;;24.90;60.90;;;;;;4087913;28;20127;-52
2021/12/29 05:40:32;;;;;;;4.40;0.93;;;24.90;61.00;;;;;;4078781;28;20050;-54
2021/12/29 05:42:37;;;;;;;4.10;1.13;;;25.00;61.10;;;;;;4074122;28;20238;-57
2021/12/29 05:44:39;;;;;;;5.78;1.05;;;25.00;61.00;;;;;;4078098;28;20050;-55
2021/12/29 05:46:43;;;;;;;4.40;1.30;;;25.00;60.90;;;;;;4070661;28;20090;-56
2021/12/29 05:48:46;;;;;;;3.15;1.15;;;25.10;61.00;;;;;;4067514;28;20058;-58
2021/12/29 05:50:48;;;;;;;7.80;0.90;;;25.00;61.00;;;;;;4079909;28;20320;-57
2021/12/29 05:52:53;;;;;;;1.73;0.83;;;25.10;61.00;;;;;;4081715;28;20513;-57
2021/12/29 05:54:56;;;;;;;2.05;0.80;;;25.10;60.90;;;;;;4087269;28;20054;-59
2021/12/29 05:56:58;;;;;;;1.25;0.80;;;25.20;60.90;;;;;;4088771;28;20046;-57
2021/12/29 05:59:02;;;;;;;2.72;0.70;;;25.20;60.80;;;;;;4079942;28;20069;-52
2021/12/29 06:01:05;;;;;;;1.98;0.55;;;25.20;60.70;;;;;;4083290;28;20054;-58
2021/12/29 06:03:08;;;;;;;3.58;0.63;;;25.30;60.70;;;;;;4065847;28;20069;-57
2021/12/29 06:05:11;;;;;;;2.20;0.93;;;25.30;60.70;;;;;;4090529;28;20543;-59
2021/12/29 06:07:13;;;;;;;3.67;0.90;;;25.40;60.60;;;;;;4079813;28;20111;-54
2021/12/29 06:09:15;;;;;;;2.10;0.73;;;25.40;60.60;;;;;;4082014;28;20046;-53
2021/12/29 06:11:17;;;;;;;3.83;0.60;;;25.40;60.60;;;;;;4080508;28;20634;-54
2021/12/29 06:13:20;;;;;;;1.60;0.70;;;25.50;60.50;;;;;;4090565;28;20050;-55
2021/12/29 06:15:22;;;;;;;3.05;0.90;;;25.60;60.40;;;;;;4080509;28;20073;-57
2021/12/29 06:17:24;;;;;;;4.68;1.05;;;25.70;60.40;;;;;;4079989;28;20108;-58
2021/12/29 06:19:26;;;;;;;1.73;0.80;;;25.70;60.30;;;;;;4081123;28;20066;-59
2021/12/29 06:21:29;;;;;;;1.53;0.67;;;25.70;60.10;;;;;;4090034;28;20057;-58
2021/12/29 06:23:31;;;;;;;3.03;1.10;;;25.80;60.00;;;;;;4083963;28;20050;-54
2021/12/29 06:25:34;;;;;;;1.87;0.90;;;25.80;60.00;;;;;;4083764;28;20402;-48
2021/12/29 06:27:37;;;;;;;2.92;0.80;;;25.90;60.00;;;;;;4081810;28;20054;-57
2021/12/29 06:29:39;;;;;;;2.33;1.00;;;25.90;59.70;;;;;;4090532;28;20485;-57
2021/12/29 06:31:44;;;;;;;9.07;1.13;;;26.00;59.80;;;;;;4082311;28;20316;-57
2021/12/29 06:33:47;;;;;;;3.15;1.02;;;26.00;59.70;;;;;;4082007;28;20107;-55
2021/12/29 06:35:49;;;;;;;6.50;1.27;;;26.00;59.60;;;;;;4081986;28;20043;-56
2021/12/29 06:37:51;;;;;;;2.13;1.30;;;26.10;59.60;;;;;;4088263;28;20391;-58
2021/12/29 06:39:53;;;;;;;2.87;1.27;;;26.10;59.60;;;;;;4087020;28;21604;-56
2021/12/29 06:41:56;;;;;;;3.27;0.97;;;26.10;59.40;;;;;;4079785;28;20145;-53
2021/12/29 06:43:58;;;;;;;4.27;0.97;;;26.10;59.30;;;;;;4083397;28;20124;-58
2021/12/29 06:46:00;;;;;;;3.40;1.00;;;26.20;59.40;;;;;;4073189;28;20292;-60
2021/12/29 06:48:02;;;;;;;1.95;0.98;;;26.20;59.30;;;;;;4084408;28;21114;-60
2021/12/29 06:50:06;;;;;;;1.63;0.90;;;26.20;59.20;;;;;;4080293;28;20796;-58
2021/12/29 06:52:09;;;;;;;2.72;1.17;;;26.20;59.20;;;;;;4083628;28;20154;-58
2021/12/29 06:54:11;;;;;;;1.95;0.65;;;26.30;59.80;;;;;;4089145;28;20046;-57
2021/12/29 06:56:13;;;;;;;2.45;1.10;;;26.30;59.10;;;;;;4081562;28;20050;-60
2021/12/29 06:58:15;;;;;;;2.73;0.90;;;26.30;59.10;;;;;;4080119;28;20054;-60
2021/12/29 07:02:14;;;;;;;2.88;1.20;;;26.40;58.40;;;;;;4170636;27;20454;-58
2021/12/29 07:04:20;;;;;;;2.58;1.10;;;26.40;58.90;;;;;;4171372;28;20124;-59
2021/12/29 07:06:22;;;;;;;2.30;0.98;;;26.40;58.80;;;;;;4180110;28;20258;-59
2021/12/29 07:08:24;;;;;;;4.43;1.17;;;26.40;58.70;;;;;;4173304;28;21350;-57
2021/12/29 07:10:26;;;;;;;2.97;1.37;;;26.40;58.50;;;;;;4171867;28;20537;-57
2021/12/29 07:12:29;;;;;;;3.03;0.83;;;26.50;58.30;;;;;;4176068;28;20082;-57
2021/12/29 07:14:31;;;;;;;2.50;1.15;;;26.50;58.20;;;;;;4176601;28;22820;-57
2021/12/29 07:16:33;;;;;;;2.80;1.10;;;26.50;58.00;;;;;;4168597;28;20702;-57
2021/12/29 07:18:35;;;;;;;1.05;0.60;;;26.50;57.80;;;;;;4174477;28;20108;-58
2021/12/29 07:20:38;;;;;;;1.83;0.82;;;26.50;57.70;;;;;;4178063;28;20884;-58
2021/12/29 07:22:41;;;;;;;2.28;1.00;;;26.50;57.50;;;;;;4164575;28;20071;-61
2021/12/29 07:24:43;;;;;;;1.90;0.95;;;26.50;57.40;;;;;;4169417;28;20458;-57
2021/12/29 07:26:46;;;;;;;1.43;0.97;;;26.50;57.40;;;;;;4166135;28;20056;-60
2021/12/29 07:28:49;;;;;;;3.08;1.00;;;26.60;57.40;;;;;;4155404;28;20056;-60
2021/12/29 07:30:51;;;;;;;4.80;1.50;;;26.60;57.30;;;;;;4152116;28;21192;-58
2021/12/29 07:32:57;;;;;;;2.22;1.00;;;26.60;57.40;;;;;;4160917;28;20052;-60
2021/12/29 07:34:59;;;;;;;1.33;0.80;;;26.60;57.70;;;;;;4161530;28;20044;-57
2021/12/29 07:37:01;;;;;;;1.97;0.83;;;26.50;57.70;;;;;;4153950;28;20117;-59
2021/12/29 07:39:04;;;;;;;4.47;1.00;;;26.50;57.70;;;;;;4151917;28;20472;-60
2021/12/29 07:41:06;;;;;;;;;;;26.50;58.10;;;;;;4160804;28;20394;-59
2021/12/29 07:43:09;;;;;;;4.80;1.27;;;26.50;57.80;;;;;;4155819;28;19928;-54
2021/12/29 07:45:12;;;;;;;5.85;1.10;;;26.50;57.80;;;;;;4153171;28;20079;-57
2021/12/29 07:47:14;;;;;;;;;;;26.50;57.70;;;;;;4157693;28;20115;-58
2021/12/29 07:49:16;;;;;;;2.03;0.90;;;26.50;57.70;;;;;;4161893;28;19928;-57
2021/12/29 07:51:18;;;;;;;1.57;1.03;;;26.50;57.50;;;;;;4153426;28;20105;-59
2021/12/29 07:53:22;;;;;;;2.43;0.90;;;26.50;57.50;;;;;;4137638;28;20461;-57
2021/12/29 07:55:23;;;;;;;;;;;26.50;57.70;;;;;;4146868;28;20300;-56
2021/12/29 07:57:25;;;;;;;1.67;0.68;;;26.50;57.80;;;;;;4172987;28;19957;-57
2021/12/29 07:59:27;;;;;;;2.15;0.73;;;26.50;57.90;;;;;;4151509;28;20064;-56
2021/12/29 08:01:30;;;;;;;6.03;1.05;;;26.50;57.80;;;;;;4144585;28;20060;-59
2021/12/29 08:03:32;;;;;;;1.70;0.65;;;26.50;57.80;;;;;;4152732;28;20055;-59
2021/12/29 08:05:34;;;;;;;3.20;1.00;;;26.50;57.80;;;;;;4153458;28;21378;-57
2021/12/29 08:07:36;;;;;;;2.53;0.80;;;26.50;57.90;;;;;;4145162;28;20119;-58
2021/12/29 08:09:39;;;;;;;2.55;0.77;;;26.50;58.10;;;;;;4158834;28;20197;-57
2021/12/29 08:11:42;;;;;;;2.50;0.65;;;26.50;58.20;;;;;;4170226;28;20062;-58
2021/12/29 08:13:44;;;;;;;1.88;0.90;;;26.50;58.20;;;;;;4146053;28;20052;-56
2021/12/29 08:15:46;;;;;;;1.90;1.00;;;26.50;58.40;;;;;;4151769;28;20132;-51
2021/12/29 08:17:48;;;;;;;2.85;0.80;;;26.50;58.30;;;;;;4141833;28;20130;-56
2021/12/29 08:19:51;;;;;;;4.25;1.33;;;26.50;58.30;;;;;;4140844;28;20064;-57
2021/12/29 08:21:53;;;;;;;3.17;1.13;;;26.50;58.40;;;;;;4150901;28;20061;-54
2021/12/29 08:23:55;;;;;;;1.65;0.95;;;26.50;58.30;;;;;;4143495;28;20064;-58
2021/12/29 08:25:58;;;;;;;2.20;0.83;;;26.50;58.50;;;;;;4143193;28;20063;-57
2021/12/29 08:28:01;;;;;;;12.85;1.15;;;26.50;58.50;;;;;;4150449;28;20668;-54
2021/12/29 08:30:05;;;;;;;3.55;1.25;;;26.50;58.70;;;;;;4147188;28;20075;-58
2021/12/29 08:32:08;;;;;;;2.35;0.98;;;26.50;58.60;;;;;;4143758;28;20056;-57
2021/12/29 08:34:10;;;;;;;6.60;1.10;;;26.50;58.60;;;;;;4141249;28;20048;-58
2021/12/29 08:36:12;;;;;;;4.68;0.70;;;26.50;58.60;;;;;;4151973;28;20071;-57
2021/12/29 08:38:15;;;;;;;1.25;0.60;;;26.50;58.60;;;;;;4162922;28;21597;-57
2021/12/29 08:40:18;;;;;;;1.50;0.60;;;26.50;58.70;;;;;;4140571;28;20762;-57
2021/12/29 08:42:20;;;;;;;2.03;1.00;;;26.50;59.10;;;;;;4151195;28;20472;-59
2021/12/29 08:44:22;;;;;;;3.80;1.03;;;26.50;58.80;;;;;;4143399;28;21212;-59
2021/12/29 08:46:24;;;;;;;1.98;0.70;;;26.40;58.50;;;;;;4136191;28;20063;-57
2021/12/29 08:48:27;;;;;;;4.43;0.80;;;26.50;58.40;;;;;;4143271;28;20044;-57
2021/12/29 08:50:31;;;;;;;4.23;0.87;;;26.40;58.20;;;;;;4144228;28;21374;-57
2021/12/29 08:52:35;;;;;;;1.98;0.77;;;26.50;58.30;;;;;;4139024;28;20389;-58
2021/12/29 08:54:38;;;;;;;1.45;0.60;;;26.40;58.30;;;;;;4140640;28;20507;-57
2021/12/29 08:56:40;;;;;;;5.03;1.10;;;26.40;58.30;;;;;;4151910;28;20143;-57
2021/12/29 08:58:42;;;;;;;3.03;1.10;;;26.40;57.80;;;;;;4144111;28;22454;-54
2021/12/29 09:00:45;;;;;;;2.42;0.90;;;26.40;58.40;;;;;;4161958;28;20305;-57
2021/12/29 09:02:49;;;;;;;1.10;0.70;;;26.40;58.50;;;;;;4159019;28;20056;-58
2021/12/29 09:04:51;;;;;;;4.10;0.90;;;26.40;58.50;;;;;;4148274;28;20479;-56
2021/12/29 09:06:53;;;;;;;1.63;0.60;;;26.40;58.60;;;;;;4141347;28;20048;-60
2021/12/29 09:08:55;;;;;;;2.95;0.80;;;26.40;58.50;;;;;;4126499;28;20075;-61
2021/12/29 09:10:58;;;;;;;1.83;0.90;;;26.40;58.50;;;;;;4152043;28;20096;-53
2021/12/29 09:13:00;;;;;;;6.83;1.33;;;26.40;58.60;;;;;;4144377;28;20305;-57
2021/12/29 09:15:06;;;;;;;3.08;0.85;;;26.40;58.60;;;;;;4142676;28;20372;-56
2021/12/29 09:17:08;;;;;;;4.30;1.42;;;26.40;58.60;;;;;;4144949;28;20109;-57
2021/12/29 09:19:13;;;;;;;7.13;1.48;;;26.40;58.10;;;;;;4129335;28;20173;-56
2021/12/29 09:21:18;;;;;;;9.18;1.50;;;26.40;57.40;;;;;;4139718;28;20131;-60
2021/12/29 09:23:20;;;;;;;4.53;1.20;;;26.40;57.00;;;;;;4137854;28;20207;-61
2021/12/29 09:25:23;;;;;;;29.15;2.30;;;26.30;56.10;;;;;;4143735;28;20056;-57
2021/12/29 09:27:26;;;;;;;4.97;1.08;;;26.30;55.70;;;;;;4141978;28;20049;-60
2021/12/29 09:29:32;;;;;;;6.00;1.20;;;26.30;55.50;;;;;;4138539;28;20083;-60
2021/12/29 09:31:34;;;;;;;2.72;1.00;;;26.20;55.50;;;;;;4138443;28;20305;-61
2021/12/29 09:33:38;;;;;;;3.70;0.90;;;26.20;56.00;;;;;;4148858;28;20048;-61
2021/12/29 09:35:41;;;;;;;3.05;1.00;;;26.20;56.40;;;;;;4147715;28;20507;-61
2021/12/29 09:37:44;;;;;;;2.92;1.13;;;26.20;56.50;;;;;;4140886;28;20839;-60
2021/12/29 09:39:46;;;;;;;2.35;1.00;;;26.20;56.70;;;;;;4144799;28;20041;-61
2021/12/29 09:41:48;;;;;;;3.70;1.23;;;26.20;56.90;;;;;;4154141;28;20044;-56
2021/12/29 09:43:51;;;;;;;2.60;0.65;;;26.20;57.00;;;;;;4146014;28;20268;-61
2021/12/29 09:45:53;;;;;;;1.63;1.00;;;26.20;57.00;;;;;;4139026;28;20596;-57
2021/12/29 09:47:57;;;;;;;2.08;0.90;;;26.20;57.10;;;;;;4149577;28;20052;-57
2021/12/29 09:49:59;;;;;;;2.90;0.98;;;26.20;57.20;;;;;;4140509;28;21360;-59
2021/12/29 09:52:02;;;;;;;3.33;0.93;;;26.20;57.30;;;;;;4137721;28;20077;-58
2021/12/29 09:54:04;;;;;;;2.33;0.70;;;26.20;57.30;;;;;;4148223;28;20053;-62
2021/12/29 09:56:10;;;;;;;2.15;0.98;;;26.20;57.40;;;;;;4146838;28;20922;-60
2021/12/29 09:58:13;;;;;;;1.65;0.75;;;26.30;57.60;;;;;;4138121;28;20483;-60
2021/12/29 10:02:13;;;;;;;1.73;0.73;;;26.30;57.10;;;;;;4178408;27;20733;-60
2021/12/29 10:04:16;;;;;;;4.65;1.38;;;26.30;57.70;;;;;;4170162;28;20048;-60
2021/12/29 10:06:17;;;;;;;;;;;26.30;57.80;;;;;;4150910;28;20147;-60
2021/12/29 10:08:34;;;;;;;4.60;1.23;;;26.30;57.70;;;;;;4177609;28;20401;-60
2021/12/29 10:10:39;;;;;;;1.88;1.00;;;26.30;57.80;;;;;;4156970;28;20116;-61
2021/12/29 10:12:46;;;;;;;1.80;0.82;;;26.30;57.80;;;;;;4160241;28;20383;-62
2021/12/29 10:14:55;;;;;;;3.40;1.08;;;26.30;58.20;;;;;;4136351;28;20753;-59
2021/12/29 10:16:58;;;;;;;3.35;0.90;;;26.30;57.60;;;;;;4171382;28;20291;-60
2021/12/29 10:19:09;;;;;;;2.07;0.83;;;26.30;57.70;;;;;;4169080;28;20458;-62
2021/12/29 10:21:14;;;;;;;2.35;1.00;;;26.30;57.70;;;;;;4150471;28;20056;-59
2021/12/29 10:23:26;;;;;;;2.33;1.10;;;26.30;57.80;;;;;;4156610;28;20808;-60
2021/12/29 10:25:33;;;;;;;2.40;0.70;;;26.30;57.80;;;;;;4158008;28;20056;-59
2021/12/29 10:27:36;;;;;;;1.63;1.00;;;26.30;57.80;;;;;;4160034;28;20052;-61
2021/12/29 10:29:41;;;;;;;2.72;1.10;;;26.30;57.80;;;;;;4153181;28;20147;-60
2021/12/29 10:31:46;;;;;;;4.55;1.40;;;26.30;57.70;;;;;;4150202;28;20056;-61
2021/12/29 10:33:56;;;;;;;1.60;0.90;;;26.30;57.70;;;;;;4138891;28;20527;-61
2021/12/29 10:36:09;;;;;;;1.35;0.80;;;26.30;57.80;;;;;;4157617;28;20980;-61
2021/12/29 10:38:17;;;;;;;1.60;1.00;;;26.30;57.80;;;;;;4158371;28;20052;-61
2021/12/29 10:40:46;;;;;;;2.05;0.75;;;26.30;57.80;;;;;;4142508;28;20166;-60
2021/12/29 10:42:58;;;;;;;1.60;0.90;;;26.30;57.80;;;;;;4147289;28;20056;-62
2021/12/29 10:45:01;;;;;;;2.23;0.80;;;26.40;57.80;;;;;;4133283;28;20132;-60
2021/12/29 10:47:15;;;;;;;1.10;0.70;;;26.30;57.80;;;;;;4156163;28;20491;-59
2021/12/29 10:49:17;;;;;;;2.20;0.88;;;26.40;57.80;;;;;;4152396;28;20044;-57
2021/12/29 10:51:33;;;;;;;1.92;0.80;;;26.30;57.60;;;;;;4144086;28;20063;-52
2021/12/29 10:53:38;;;;;;;2.13;1.02;;;26.30;57.70;;;;;;4160848;28;20068;-56
2021/12/29 10:55:40;;;;;;;4.05;1.15;;;26.30;58.30;;;;;;4161908;28;20060;-58